Stream/Lake Gauges

Stream

Sorted by field:   ASC
IdNameStage(ft)Discharge(ft³)Last Report
3873Partridge-Creek-at-I-403.7005/8/2026 4:49:29 AM
5412707Big-Chino-Wash-@-SR-89-Pressure-Transducer1.8505/8/2026 6:00:00 AM
5414007Banning-Creek-Pressure-Transducer0.0605/8/2026 6:00:00 AM
5415507Granite-Creek-@-White-Spar-CG-Pressure-Transducer0.0205/8/2026 6:00:00 AM
5428007Verde-River-@-Perkinsville-Pressure-Transducer1.3755/8/2026 6:00:00 AM
5438307Verde-River-@-Tuzigoot-NM-Radar2.62 5/8/2026 6:00:00 AM
5444507Oak-Creek-blw-Pumphouse-Wash-Pressure-Transducer0.5315/8/2026 6:00:00 AM
5446907West-Fork-Oak-Creek-Pressure-Transducer0.1415/8/2026 6:00:00 AM
5452507Dry-Creek-Levee-Pressure-Transducer1.9005/8/2026 6:00:00 AM
5453507Spring-Creek-@-SR-89A-Radar-0.0505/8/2026 6:00:00 AM
5472007Skull-Valley-Wash-@-Kirkland-Radar0.0405/8/2026 6:00:00 AM
5487707Lynx-Creek-Levee-Pressure-Transducer0.2805/8/2026 6:00:00 AM
5488207Clipper-Wash-at-PCC-Pressure-Transducer0.0605/8/2026 6:00:00 AM
5489707Agua-Fria-River-blw-Ash-Creek-Pressure-Transducer0.1005/8/2026 6:00:00 AM
5490907Sycamore-Creek-nr-Dugas-Pressure-Transducer0.0205/8/2026 6:00:00 AM
5491207Lower-Sycamore-Creek-Pressure-Transducer0.0205/8/2026 6:00:00 AM
5494907Agua-Fria-River-@-Kelton-Ranch-Pressure-Transducer0.2605/8/2026 6:00:00 AM
5495207Agua-Fria-River-@-Horseshoe-Ranch-Pressure-Transducer  1/1/1901 1:01:01 AM
5498507Upper-Black-Canyon-Creek-Pressure-Transducer0.3015/8/2026 6:00:00 AM
5499007Black-Canyon-Creek-@-Maren-Ave-Pressure-Transducer-0.7205/7/2026 6:00:00 PM
5499307Agua-Fria-River-abv-BCC-Pressure-Transducer1.8325/8/2026 5:00:00 AM
5499807Agua-Fria-River-@-Old-Black-Canyon-Hwy-Radar-0.0605/7/2026 5:00:00 PM

Lake

Sorted by field:   ASC
IdNameStage(ft)Discharge(ft³)Last Report
5413407Upper-Goldwater-Lake-Pressure-Transducer-7.3805/8/2026 6:00:00 AM
5413607Lower-Goldwater-Lake-Pressure-Transducer-6.6605/8/2026 6:00:00 AM
5420707Willow-Lake-Radar-13.9205/8/2026 6:00:00 AM
5421007Watson-Lake-Pressure-Transducer-5.0305/8/2026 6:00:00 AM
5454507Chick-Rd-Detention-Pond-Pressure-Transducer0.0005/8/2026 6:00:00 AM
5486007Fain-Lake-Pressure-Transducer-0.4705/8/2026 6:00:00 AM
5493407Centennial-Park-Deten-Pond-Mayer-Pressure-Transducer0.0005/8/2026 6:00:00 AM
Data refreshed at: 6:42:02 AM